Time;durP1;ratioP1;P1;durP2;ratioP2;P2;SDS_P1;SDS_P2;PMS_P1;PMS_P2;Temp;Humidity;BMP_temperature;BMP_pressure;BME280_temperature;BME280_humidity;BME280_pressure;Samples;Min_cycle;Max_cycle;Signal;HPM_P1;HPM_P2
2022/04/30 00:00:59;;;;;;;9.68;7.78;;;;;;;12.40;100.00;100812.91;5031718;28;20195;-75
2022/04/30 00:03:28;;;;;;;7.63;6.82;;;;;;;12.46;100.00;100839.84;5031688;28;20250;-75
2022/04/30 00:05:55;;;;;;;8.43;7.40;;;;;;;12.07;100.00;100811.34;5050364;28;20748;-74
2022/04/30 00:08:22;;;;;;;12.57;7.70;;;;;;;12.12;100.00;100833.13;5050355;28;20204;-75
2022/04/30 00:10:50;;;;;;;8.75;7.35;;;;;;;12.17;100.00;100834.94;5048977;28;20204;-75
2022/04/30 00:13:17;;;;;;;12.27;7.63;;;;;;;12.14;100.00;100829.69;5050208;28;20209;-75
2022/04/30 00:15:44;;;;;;;8.48;7.68;;;;;;;12.15;100.00;100835.78;5050221;28;20206;-75
2022/04/30 00:18:11;;;;;;;10.05;7.80;;;;;;;12.18;100.00;100834.13;5049921;28;20204;-75
2022/04/30 00:20:45;;;;;;;11.23;7.97;;;;;;;12.14;100.00;100832.28;5044349;28;20199;-75
2022/04/30 00:23:19;;;;;;;9.07;7.22;;;;;;;11.92;100.00;100822.28;5049962;28;20226;-75
2022/04/30 00:25:50;;;;;;;8.85;7.72;;;;;;;11.86;100.00;100797.06;5050306;28;20223;-75
2022/04/30 00:28:17;;;;;;;9.07;8.18;;;;;;;11.90;100.00;100804.06;5050430;28;20650;-75
2022/04/30 00:30:45;;;;;;;8.75;7.90;;;;;;;11.49;100.00;100744.22;5049925;28;20198;-75
2022/04/30 00:33:12;;;;;;;9.27;8.35;;;;;;;11.83;100.00;100840.28;5032239;28;20291;-75
2022/04/30 00:35:40;;;;;;;9.40;8.50;;;;;;;12.06;100.00;100836.44;5014679;28;20690;-75
2022/04/30 00:38:08;;;;;;;10.60;8.00;;;;;;;11.85;100.00;100804.81;5050217;28;20196;-75
2022/04/30 00:40:35;;;;;;;8.63;7.65;;;;;;;12.03;100.00;100835.50;5050433;28;20634;-75
2022/04/30 00:43:02;;;;;;;12.00;8.07;;;;;;;12.03;100.00;100832.91;5039365;28;20566;-75
2022/04/30 00:45:29;;;;;;;9.88;7.75;;;;;;;11.89;100.00;100809.22;5045042;28;20220;-75
2022/04/30 00:47:56;;;;;;;9.43;8.45;;;;;;;11.82;100.00;100809.94;5053688;28;20202;-75
2022/04/30 00:50:28;;;;;;;8.75;7.95;;;;;;;12.04;100.00;100830.34;5032953;28;20212;-75
2022/04/30 00:52:58;;;;;;;9.15;7.97;;;;;;;12.05;100.00;100828.63;5006957;28;20231;-75
2022/04/30 00:55:29;;;;;;;10.02;7.25;;;;;;;11.93;100.00;100818.84;5056498;28;20253;-75
2022/04/30 00:58:01;;;;;;;8.48;7.70;;;;;;;11.94;100.00;100802.41;5055990;28;20203;-75
2022/04/30 01:00:29;;;;;;;10.60;7.63;;;;;;;12.01;100.00;100809.50;5053834;28;20240;-75
2022/04/30 01:02:56;;;;;;;10.75;8.40;;;;;;;12.15;100.00;100821.06;5054583;28;20199;-75
2022/04/30 01:05:23;;;;;;;14.93;8.88;;;;;;;12.06;100.00;100826.06;5053924;28;20223;-75
2022/04/30 01:07:51;;;;;;;11.75;8.23;;;;;;;12.07;100.00;100829.53;5054002;28;20243;-75
2022/04/30 01:10:19;;;;;;;9.23;8.32;;;;;;;12.19;100.00;100828.06;5053752;28;20219;-75
2022/04/30 01:12:47;;;;;;;9.98;8.68;;;;;;;12.00;100.00;100825.94;5053146;28;20204;-75
2022/04/30 01:15:15;;;;;;;10.15;8.90;;;;;;;11.99;100.00;100821.56;5053065;28;20206;-75
2022/04/30 01:17:42;;;;;;;9.65;8.35;;;;;;;11.34;100.00;100701.50;5052775;28;20199;-75
2022/04/30 01:20:11;;;;;;;8.98;8.07;;;;;;;12.00;100.00;100820.72;5053036;28;20192;-75
2022/04/30 01:22:52;;;;;;;10.73;9.00;;;;;;;12.00;100.00;100820.72;5015953;28;20298;-78
2022/04/30 01:25:21;;;;;;;9.57;8.57;;;;;;;12.01;100.00;100814.69;5017748;28;20235;-72
2022/04/30 01:27:49;;;;;;;13.30;8.98;;;;;;;11.85;100.00;100784.03;5036247;28;20199;-75
2022/04/30 01:30:17;;;;;;;12.23;9.15;;;;;;;11.96;100.00;100810.22;5053033;28;20200;-75
2022/04/30 01:38:15;;;;;;;11.63;9.43;;;;;;;11.96;100.00;100807.63;5052527;28;20682;-75
2022/04/30 01:40:42;;;;;;;14.55;9.13;;;;;;;11.92;100.00;100806.69;5048127;28;20691;-75
2022/04/30 01:43:09;;;;;;;12.88;9.57;;;;;;;11.95;100.00;100809.34;5052051;28;20208;-75
2022/04/30 01:45:36;;;;;;;10.23;8.18;;;;;;;11.83;100.00;100790.91;5052542;28;20234;-75
2022/04/30 01:48:04;;;;;;;12.35;9.10;;;;;;;11.89;100.00;100814.44;5052821;28;20199;-75
2022/04/30 01:50:32;;;;;;;12.48;9.98;;;;;;;11.89;100.00;100807.50;5052678;28;20660;-75
2022/04/30 01:52:59;;;;;;;12.43;9.35;;;;;;;11.77;100.00;100802.03;5052949;28;20572;-75
2022/04/30 01:55:27;;;;;;;12.70;9.77;;;;;;;11.88;100.00;100803.16;5052038;28;20258;-75
2022/04/30 01:57:54;;;;;;;11.25;9.10;;;;;;;11.73;100.00;100802.84;5053119;28;20202;-75
2022/04/30 02:00:21;;;;;;;11.02;8.35;;;;;;;11.69;100.00;100801.00;5051734;28;20200;-75
2022/04/30 02:02:49;;;;;;;11.35;9.68;;;;;;;11.63;100.00;100808.63;5013123;28;20204;-75
2022/04/30 02:05:19;;;;;;;12.52;8.55;;;;;;;11.58;100.00;100791.19;5048066;28;20199;-75
2022/04/30 02:07:50;;;;;;;10.70;8.75;;;;;;;11.65;100.00;100808.66;5052231;28;20203;-75
2022/04/30 02:10:19;;;;;;;12.00;9.05;;;;;;;11.63;100.00;100807.78;5051848;28;20322;-75
2022/04/30 02:12:48;;;;;;;13.27;9.68;;;;;;;11.46;100.00;100781.41;5052454;28;20208;-75
2022/04/30 02:15:15;;;;;;;11.45;9.05;;;;;;;11.17;100.00;100759.97;5052188;28;20889;-75
2022/04/30 02:17:43;;;;;;;18.95;9.40;;;;;;;11.18;100.00;100782.50;5051738;28;20230;-75
2022/04/30 02:20:22;;;;;;;10.82;9.23;;;;;;;11.14;100.00;100757.31;5052047;28;20245;-75
2022/04/30 02:22:49;;;;;;;11.95;10.05;;;;;;;11.12;100.00;100753.81;5052199;28;20207;-75
2022/04/30 02:25:17;;;;;;;10.18;9.13;;;;;;;11.29;100.00;100795.72;5051632;28;20210;-75
2022/04/30 02:27:45;;;;;;;12.10;9.35;;;;;;;11.30;100.00;100792.28;5052607;28;20199;-75
2022/04/30 02:30:15;;;;;;;18.55;9.73;;;;;;;11.23;100.00;100778.31;5052263;28;20204;-75
2022/04/30 02:32:43;;;;;;;14.95;8.82;;;;;;;11.25;100.00;100784.38;5033092;28;20668;-75
2022/04/30 02:35:10;;;;;;;12.93;8.88;;;;;;;11.07;100.00;100758.00;5051604;28;20199;-75
2022/04/30 02:37:38;;;;;;;14.52;9.75;;;;;;;11.29;100.00;100780.16;5052514;28;20210;-75
2022/04/30 02:40:05;;;;;;;12.70;10.15;;;;;;;11.34;100.00;100783.75;5051840;28;20210;-75
2022/04/30 02:42:32;;;;;;;10.30;9.02;;;;;;;11.28;100.00;100778.38;5052747;28;20211;-75
2022/04/30 02:44:59;;;;;;;15.88;9.93;;;;;;;11.11;100.00;100769.34;5051367;28;20206;-76
2022/04/30 02:47:28;;;;;;;11.48;9.63;;;;;;;11.33;100.00;100781.97;5051709;28;20299;-75
2022/04/30 02:49:54;;;;;;;13.18;9.30;;;;;;;11.39;100.00;100777.78;5052023;28;20207;-76
2022/04/30 02:52:22;;;;;;;13.70;9.23;;;;;;;11.43;100.00;100773.56;5051823;28;20196;-75
2022/04/30 02:54:49;;;;;;;13.73;9.60;;;;;;;11.45;100.00;100787.44;5051900;28;20644;-75
2022/04/30 02:57:15;;;;;;;10.98;9.32;;;;;;;11.44;100.00;100790.91;5051814;28;20752;-75
2022/04/30 02:59:53;;;;;;;13.50;9.68;;;;;;;11.30;100.00;100751.63;5052025;28;20583;-76
2022/04/30 03:02:20;;;;;;;14.27;9.80;;;;;;;11.29;100.00;100757.66;5051779;28;20206;-75
2022/04/30 03:04:51;;;;;;;13.55;10.40;;;;;;;11.21;100.00;100748.81;5051647;28;20285;-75
2022/04/30 03:07:18;;;;;;;13.90;10.27;;;;;;;11.45;100.00;100792.63;5050724;28;20294;-75
2022/04/30 03:09:47;;;;;;;14.18;10.80;;;;;;;11.49;100.00;100788.38;5051553;28;20200;-75
2022/04/30 03:12:14;;;;;;;13.68;9.70;;;;;;;11.40;100.00;100800.34;5051239;28;20257;-75
2022/04/30 03:14:41;;;;;;;12.07;9.60;;;;;;;11.23;100.00;100775.72;5051171;28;20204;-75
2022/04/30 03:22:38;;;;;;;18.40;10.63;;;;;;;11.16;100.00;100798.88;5051115;28;20218;-75
2022/04/30 03:25:06;;;;;;;12.77;9.93;;;;;;;11.09;100.00;100792.66;5032101;28;20195;-75
2022/04/30 03:27:34;;;;;;;14.68;10.50;;;;;;;11.24;100.00;100795.59;5016209;28;20227;-76
2022/04/30 03:30:00;;;;;;;16.58;10.55;;;;;;;11.17;100.00;100779.84;5050827;28;20191;-75
2022/04/30 03:32:27;;;;;;;17.15;10.95;;;;;;;11.08;100.00;100780.53;5050717;28;20195;-75
2022/04/30 03:34:55;;;;;;;13.00;10.73;;;;;;;11.30;100.00;100803.56;5050776;28;20214;-75
2022/04/30 03:37:22;;;;;;;14.18;11.10;;;;;;;11.28;100.00;100800.03;5050567;28;20202;-75
2022/04/30 03:39:49;;;;;;;17.13;11.27;;;;;;;11.25;100.00;100810.34;5050573;28;20199;-75
2022/04/30 03:42:16;;;;;;;12.02;10.38;;;;;;;11.14;100.00;100796.22;5051025;28;20699;-76
2022/04/30 03:44:43;;;;;;;17.63;11.48;;;;;;;11.29;100.00;100811.31;5050155;28;20206;-75
2022/04/30 03:47:09;;;;;;;21.60;12.35;;;;;;;11.35;100.00;100812.31;5049992;28;20216;-76
2022/04/30 03:49:36;;;;;;;18.92;11.65;;;;;;;11.37;100.00;100809.78;5050500;28;20200;-75
2022/04/30 03:52:05;;;;;;;25.92;11.52;;;;;;;11.15;100.00;100772.03;5050909;28;20196;-75
2022/04/30 03:54:32;;;;;;;74.13;12.30;;;;;;;11.44;100.00;100820.34;5015554;28;20246;-76
2022/04/30 03:56:58;;;;;;;125.00;11.23;;;;;;;11.02;100.00;100792.47;5047535;28;20214;-75
2022/04/30 03:59:25;;;;;;;13.77;10.70;;;;;;;11.30;100.00;100810.47;5015555;28;20192;-76
2022/04/30 04:01:52;;;;;;;14.73;11.35;;;;;;;11.76;100.00;100815.00;5031873;28;20203;-75
2022/04/30 04:04:19;;;;;;;13.00;10.43;;;;;;;12.54;100.00;100825.28;5048108;28;20206;-75
2022/04/30 04:06:46;;;;;;;11.80;9.38;;;;;;;13.34;100.00;100830.19;5049942;28;20230;-75
2022/04/30 04:09:15;;;;;;;9.57;8.57;;;;;;;14.08;100.00;100853.00;5050526;28;20203;-75
2022/04/30 04:11:42;;;;;;;10.60;7.97;;;;;;;14.79;100.00;100849.53;5030947;28;20203;-76
2022/04/30 04:19:36;;;;;;;7.90;7.13;;;;;;;16.19;100.00;100827.91;5053921;28;20210;-76
2022/04/30 04:22:04;;;;;;;6.47;5.88;;;;;;;16.85;100.00;100857.78;5054605;28;20210;-76
2022/04/30 04:27:17;;;;;;;10.45;6.28;;;;;;;16.53;100.00;100843.72;5054651;28;20592;-75
2022/04/30 04:29:44;;;;;;;19.45;6.88;;;;;;;16.72;100.00;100869.13;5054559;28;20191;-75
2022/04/30 04:32:11;;;;;;;8.05;6.03;;;;;;;17.14;100.00;100869.19;5054726;28;20222;-75
2022/04/30 04:34:37;;;;;;;6.30;5.68;;;;;;;17.62;100.00;100876.22;5019005;28;20203;-76
2022/04/30 04:37:04;;;;;;;7.60;5.53;;;;;;;17.35;100.00;100882.31;5054554;28;20250;-75
2022/04/30 04:39:32;;;;;;;13.00;6.35;;;;;;;17.65;100.00;100885.84;5017710;28;20211;-75
2022/04/30 04:41:59;;;;;;;7.35;6.65;;;;;;;17.86;100.00;100891.06;5054393;28;20619;-75
2022/04/30 04:44:26;;;;;;;7.40;4.75;;;;;;;17.18;100.00;100888.44;5054278;28;20203;-75
2022/04/30 04:46:53;;;;;;;7.63;5.63;;;;;;;17.46;100.00;100878.81;5054432;28;20288;-75
2022/04/30 04:49:19;;;;;;;6.60;5.80;;;;;;;18.17;100.00;100887.47;5054389;28;20198;-73
2022/04/30 04:51:46;;;;;;;6.82;6.10;;;;;;;17.90;100.00;100884.06;5053931;28;20199;-75
2022/04/30 04:54:13;;;;;;;8.70;6.63;;;;;;;18.40;97.44;100883.91;5053866;28;20231;-74
2022/04/30 04:56:42;;;;;;;7.47;5.38;;;;;;;18.30;92.12;100847.16;5052716;28;20694;-75
2022/04/30 04:59:09;;;;;;;10.38;5.78;;;;;;;17.70;98.88;100878.81;5053618;28;20198;-75
2022/04/30 05:01:36;;;;;;;12.18;6.30;;;;;;;19.02;91.45;100881.84;5053902;28;20257;-75
2022/04/30 05:04:04;;;;;;;10.80;4.78;;;;;;;18.51;87.39;100871.63;5053824;28;20203;-74
2022/04/30 05:06:30;;;;;;;7.32;5.43;;;;;;;17.09;100.00;100884.03;5053138;28;20573;-75
2022/04/30 05:08:57;;;;;;;6.82;6.15;;;;;;;18.24;100.00;100889.22;5054028;28;20191;-75
2022/04/30 05:11:24;;;;;;;6.85;6.15;;;;;;;18.70;93.64;100896.91;5052986;28;20195;-75
2022/04/30 05:13:52;;;;;;;6.32;5.65;;;;;;;19.15;88.14;100896.66;5053502;28;20207;-74
2022/04/30 05:16:20;;;;;;;5.90;5.30;;;;;;;18.23;94.85;100861.19;5053435;28;20208;-74
2022/04/30 05:18:47;;;;;;;7.57;6.07;;;;;;;18.87;96.30;100887.19;5053388;28;20218;-75
2022/04/30 05:21:13;;;;;;;7.68;6.28;;;;;;;18.30;95.91;100904.94;5052517;28;20199;-75
2022/04/30 05:23:40;;;;;;;7.88;5.82;;;;;;;18.70;93.52;100889.91;5052545;28;20716;-75
2022/04/30 05:26:07;;;;;;;7.97;5.80;;;;;;;18.78;92.28;100895.13;5052845;28;20199;-74
2022/04/30 05:28:34;;;;;;;7.13;5.88;;;;;;;18.26;94.58;100895.31;5053114;28;20204;-75
2022/04/30 05:31:02;;;;;;;6.80;6.10;;;;;;;17.71;100.00;100901.56;5051838;28;20673;-73
2022/04/30 05:33:34;;;;;;;7.35;6.45;;;;;;;17.30;100.00;100894.53;5056146;28;20195;-74
2022/04/30 05:36:01;;;;;;;7.95;6.72;;;;;;;17.37;100.00;100884.06;5060486;28;20274;-74
2022/04/30 05:38:28;;;;;;;6.50;5.78;;;;;;;17.04;100.00;100877.06;5048409;28;20211;-75
2022/04/30 05:40:55;;;;;;;9.63;6.93;;;;;;;16.85;100.00;100904.94;5052491;28;20637;-75
2022/04/30 05:43:22;;;;;;;6.82;6.13;;;;;;;16.76;100.00;100899.69;5052004;28;20690;-75
2022/04/30 05:45:49;;;;;;;8.35;6.43;;;;;;;16.37;100.00;100909.09;5052917;28;20196;-74
2022/04/30 05:48:17;;;;;;;8.80;5.82;;;;;;;16.18;100.00;100909.91;5052692;28;20671;-75
2022/04/30 05:50:43;;;;;;;7.22;6.28;;;;;;;15.55;100.00;100888.56;5053036;28;20200;-74
2022/04/30 05:53:10;;;;;;;8.23;6.22;;;;;;;15.34;100.00;100907.47;5052938;28;20231;-75
2022/04/30 05:55:37;;;;;;;8.48;6.10;;;;;;;15.25;100.00;100881.28;5052640;28;20219;-74
2022/04/30 05:58:04;;;;;;;6.75;6.05;;;;;;;14.89;100.00;100907.91;5052628;28;20210;-73
2022/04/30 06:00:31;;;;;;;8.65;7.10;;;;;;;14.70;100.00;100911.19;5052226;28;20196;-75
2022/04/30 06:02:58;;;;;;;8.60;7.28;;;;;;;14.75;100.00;100893.84;5052811;28;20200;-74
2022/04/30 06:05:26;;;;;;;8.40;6.30;;;;;;;14.44;100.00;100907.41;5053113;28;20210;-75
2022/04/30 06:07:53;;;;;;;10.30;6.53;;;;;;;13.94;100.00;100912.78;5052664;28;20715;-74
2022/04/30 06:10:20;;;;;;;8.27;7.47;;;;;;;14.18;100.00;100918.34;5052576;28;20211;-73
2022/04/30 06:12:47;;;;;;;11.68;7.63;;;;;;;14.50;100.00;100916.16;5051730;28;20203;-74
2022/04/30 06:15:14;;;;;;;10.15;8.45;;;;;;;14.41;100.00;100909.97;5054383;28;20227;-75
2022/04/30 06:17:41;;;;;;;8.48;7.18;;;;;;;14.20;100.00;100914.00;5056045;28;20215;-76
2022/04/30 06:20:09;;;;;;;12.00;7.68;;;;;;;14.20;100.00;100916.59;5056248;28;20211;-75
2022/04/30 06:22:37;;;;;;;9.90;7.97;;;;;;;14.35;100.00;100914.25;5031085;28;20200;-76
2022/04/30 06:25:05;;;;;;;9.05;7.15;;;;;;;14.12;100.00;100912.16;5010410;28;20199;-76
2022/04/30 06:27:32;;;;;;;9.48;6.20;;;;;;;14.16;100.00;100921.78;5057333;28;20234;-72
2022/04/30 06:29:59;;;;;;;9.52;7.60;;;;;;;14.50;100.00;100916.16;5053286;28;20202;-76
2022/04/30 06:32:26;;;;;;;10.20;7.85;;;;;;;14.97;100.00;100919.34;5052224;28;20206;-75
2022/04/30 06:34:53;;;;;;;9.18;8.10;;;;;;;15.07;100.00;100910.72;5051883;28;20204;-77
2022/04/30 06:37:20;;;;;;;11.05;8.93;;;;;;;15.42;100.00;100928.47;5051619;28;20203;-76
2022/04/30 06:39:48;;;;;;;8.88;7.85;;;;;;;15.38;100.00;100919.72;5054449;28;20226;-77
2022/04/30 06:42:15;;;;;;;8.15;7.32;;;;;;;15.06;100.00;100884.56;5014152;28;20208;-76
2022/04/30 06:44:42;;;;;;;9.65;8.10;;;;;;;14.77;100.00;100869.50;5051728;28;20196;-76
2022/04/30 06:47:09;;;;;;;10.23;7.15;;;;;;;15.41;100.00;100908.44;5050357;28;20215;-76
2022/04/30 06:49:35;;;;;;;8.77;7.32;;;;;;;15.57;100.00;100912.94;5048421;28;20199;-77
2022/04/30 06:52:03;;;;;;;13.20;7.43;;;;;;;15.14;100.00;100890.75;5053782;28;20199;-76
2022/04/30 06:57:17;;;;;;;7.45;6.57;;;;;;;15.58;100.00;100889.44;5053973;28;20256;-82
2022/04/30 06:59:45;;;;;;;7.72;6.53;;;;;;;15.58;100.00;100905.13;5046156;28;20202;-76
2022/04/30 07:02:13;;;;;;;10.50;6.57;;;;;;;15.37;100.00;100907.53;5050906;28;20618;-76
2022/04/30 07:04:41;;;;;;;13.77;6.97;;;;;;;15.49;100.00;100906.78;5050652;28;20215;-73
2022/04/30 07:07:08;;;;;;;5.68;5.07;;;;;;;15.07;100.00;100899.41;5048411;28;20242;-77
2022/04/30 07:09:36;;;;;;;7.07;5.97;;;;;;;15.50;100.00;100879.78;5049568;28;20210;-76
2022/04/30 07:12:04;;;;;;;5.47;4.57;;;;;;;15.39;100.00;100911.03;5047986;28;20208;-77
2022/04/30 07:14:35;;;;;;;7.93;6.25;;;;;;;15.78;100.00;100910.50;5015418;28;20209;-75
2022/04/30 07:17:03;;;;;;;6.50;5.75;;;;;;;16.19;100.00;100916.88;5048701;28;20261;-75
2022/04/30 07:19:29;;;;;;;6.10;5.50;;;;;;;15.35;100.00;100876.16;5050530;28;20648;-76
2022/04/30 07:21:56;;;;;;;5.25;4.75;;;;;;;15.28;100.00;100900.47;5032508;28;20192;-76
2022/04/30 07:24:23;;;;;;;6.90;6.07;;;;;;;15.75;100.00;100918.31;5050871;28;20210;-76
2022/04/30 07:26:50;;;;;;;8.38;5.68;;;;;;;15.63;100.00;100919.09;5053339;28;20659;-76
2022/04/30 07:29:17;;;;;;;7.35;5.95;;;;;;;15.74;100.00;100917.44;5050720;28;20215;-76
2022/04/30 07:31:45;;;;;;;6.00;5.20;;;;;;;16.24;100.00;100925.63;5049437;28;20665;-76
2022/04/30 07:34:12;;;;;;;5.05;4.55;;;;;;;16.14;100.00;100897.66;5049921;28;20208;-76
2022/04/30 07:36:40;;;;;;;3.80;3.60;;;;;;;15.67;100.00;100926.09;5048645;28;20211;-75
2022/04/30 07:39:07;;;;;;;4.13;3.47;;;;;;;15.91;100.00;100914.94;5050969;28;20199;-75
2022/04/30 07:41:35;;;;;;;4.65;4.18;;;;;;;16.41;100.00;100922.22;5050791;28;20199;-76
2022/04/30 07:44:02;;;;;;;5.22;4.80;;;;;;;16.14;100.00;100892.41;5050780;28;20207;-74
2022/04/30 07:46:29;;;;;;;5.20;4.80;;;;;;;16.49;100.00;100926.59;5050084;28;20606;-75
2022/04/30 07:48:57;;;;;;;4.80;4.30;;;;;;;16.40;100.00;100920.47;5049769;28;20242;-74
2022/04/30 07:51:34;;;;;;;5.95;4.28;;;;;;;16.24;100.00;100923.00;5050210;28;20199;-73
2022/04/30 07:54:01;;;;;;;3.47;3.25;;;;;;;15.77;100.00;100920.06;5050028;28;20226;-75
2022/04/30 07:56:28;;;;;;;5.22;4.43;;;;;;;16.19;100.00;100913.38;5049085;28;20218;-73
2022/04/30 07:58:55;;;;;;;2.85;2.63;;;;;;;15.92;100.00;100908.84;5015041;28;20222;-75
2022/04/30 08:01:22;;;;;;;4.55;4.13;;;;;;;16.04;100.00;100906.31;5014633;28;21582;-73
2022/04/30 08:03:49;;;;;;;3.17;2.97;;;;;;;15.86;100.00;100901.84;5050116;28;20207;-73
2022/04/30 08:06:17;;;;;;;5.22;4.72;;;;;;;16.49;100.00;100917.88;5050569;28;20191;-73
2022/04/30 08:08:44;;;;;;;4.35;3.95;;;;;;;16.32;100.00;100899.50;5052991;28;20231;-73
2022/04/30 08:11:12;;;;;;;10.20;5.00;;;;;;;16.49;100.00;100916.13;5050356;28;20660;-73
2022/04/30 08:13:39;;;;;;;5.78;4.75;;;;;;;16.62;100.00;100923.19;5050187;28;20191;-73
2022/04/30 08:16:09;;;;;;;6.28;4.68;;;;;;;16.48;100.00;100918.78;5049794;28;20294;-73
2022/04/30 08:18:37;;;;;;;4.80;3.35;;;;;;;16.46;100.00;100910.88;5049629;28;20707;-73
2022/04/30 08:21:05;;;;;;;6.05;4.38;;;;;;;16.48;100.00;100903.06;5049988;28;20691;-73
2022/04/30 08:23:34;;;;;;;5.60;4.45;;;;;;;16.50;100.00;100903.94;5050124;28;20199;-73
2022/04/30 08:26:03;;;;;;;4.45;4.15;;;;;;;16.20;100.00;100889.81;5015160;28;20231;-73
2022/04/30 08:28:29;;;;;;;6.20;3.83;;;;;;;16.89;100.00;100914.56;5049544;28;20227;-73
2022/04/30 08:30:57;;;;;;;4.90;4.50;;;;;;;17.46;97.58;100910.28;5049880;28;20202;-73
2022/04/30 08:33:24;;;;;;;5.78;4.43;;;;;;;17.35;94.54;100903.28;5049924;28;20204;-73
2022/04/30 08:35:51;;;;;;;7.22;4.53;;;;;;;17.85;93.17;100907.66;5050071;28;20607;-73
2022/04/30 08:38:18;;;;;;;7.72;4.95;;;;;;;17.86;90.51;100917.31;5050119;28;20199;-73
2022/04/30 08:40:46;;;;;;;4.78;4.38;;;;;;;17.38;90.65;100842.09;5014905;28;20207;-73
2022/04/30 08:43:15;;;;;;;4.63;4.13;;;;;;;17.84;91.67;100906.78;5049963;28;20200;-73
2022/04/30 08:45:44;;;;;;;7.13;4.38;;;;;;;18.24;85.99;100904.09;5049820;28;20203;-73
2022/04/30 08:48:13;;;;;;;3.80;3.50;;;;;;;17.98;85.95;100900.66;5049882;28;20796;-73
2022/04/30 08:50:41;;;;;;;4.50;4.13;;;;;;;17.95;87.15;100900.66;5049718;28;20206;-73
2022/04/30 08:53:08;;;;;;;6.05;4.28;;;;;;;17.85;90.20;100899.81;5049862;28;20207;-73
2022/04/30 08:55:36;;;;;;;6.55;4.82;;;;;;;17.74;90.30;100862.22;5049360;28;20231;-73
2022/04/30 08:58:04;;;;;;;6.38;5.50;;;;;;;17.59;92.26;100854.34;5049690;28;20204;-73
2022/04/30 09:00:31;;;;;;;5.55;4.70;;;;;;;17.73;95.30;100887.56;5014614;28;20702;-73
2022/04/30 09:03:00;;;;;;;3.92;3.53;;;;;;;17.72;90.34;100896.34;5049808;28;20259;-73
2022/04/30 09:05:32;;;;;;;6.20;3.95;;;;;;;18.13;84.40;100891.00;5051757;28;20210;-73
2022/04/30 09:08:00;;;;;;;4.47;3.80;;;;;;;18.42;81.05;100898.78;5053273;28;20318;-73
2022/04/30 09:10:29;;;;;;;3.70;3.40;;;;;;;18.58;81.38;100900.50;5053328;28;20200;-73
2022/04/30 09:13:06;;;;;;;6.75;3.78;;;;;;;18.17;81.66;100886.59;5053312;28;20253;-73
2022/04/30 09:15:34;;;;;;;3.55;3.25;;;;;;;18.59;84.98;100867.19;5017887;28;20231;-73
2022/04/30 09:18:01;;;;;;;4.88;3.60;;;;;;;18.77;75.03;100890.75;5053215;28;20211;-74
2022/04/30 09:20:29;;;;;;;4.43;4.00;;;;;;;18.29;80.53;100892.72;5053012;28;20262;-73
2022/04/30 09:22:57;;;;;;;3.42;3.20;;;;;;;18.24;79.40;100893.59;5052981;28;20199;-73
2022/04/30 09:25:24;;;;;;;4.15;3.80;;;;;;;18.31;81.37;100892.69;5034443;28;20199;-73
2022/04/30 09:27:53;;;;;;;3.58;3.28;;;;;;;18.29;81.04;100882.19;5052892;28;20223;-73
2022/04/30 09:30:24;;;;;;;5.05;2.92;;;;;;;18.36;77.78;100901.44;5052888;28;20252;-73
2022/04/30 09:33:03;;;;;;;3.80;3.50;;;;;;;19.09;75.48;100885.28;5052907;28;20265;-73
2022/04/30 09:38:15;;;;;;;3.58;3.28;;;;;;;19.18;69.92;100890.50;5053037;28;20222;-73
2022/04/30 09:40:52;;;;;;;7.60;3.25;;;;;;;19.17;67.67;100858.06;5053111;28;20195;-73
2022/04/30 09:43:19;;;;;;;3.80;3.45;;;;;;;19.45;64.80;100873.66;5052536;28;20230;-73
2022/04/30 09:45:47;;;;;;;2.67;2.47;;;;;;;19.17;64.97;100884.38;5052668;28;20253;-73
2022/04/30 09:53:57;;;;;;;3.42;3.10;;;;;;;18.54;71.69;100877.75;5052552;28;20202;-73
2022/04/30 09:56:33;;;;;;;3.75;3.28;;;;;;;18.65;71.68;100812.03;5052503;28;20655;-73
2022/04/30 09:59:04;;;;;;;4.05;3.10;;;;;;;19.17;70.19;100863.34;5052695;28;20214;-73
2022/04/30 10:01:35;;;;;;;3.13;2.83;;;;;;;19.00;66.96;100831.06;5052297;28;20601;-73
2022/04/30 10:04:08;;;;;;;3.28;3.03;;;;;;;19.45;66.13;100849.97;5052340;28;20200;-73
2022/04/30 10:06:37;;;;;;;2.88;2.67;;;;;;;18.74;67.80;100818.09;5052141;28;20760;-74
2022/04/30 10:09:09;;;;;;;2.75;2.55;;;;;;;19.45;66.62;100844.72;5052135;28;20785;-73
2022/04/30 10:11:47;;;;;;;2.95;2.75;;;;;;;19.60;64.84;100840.19;5052233;28;20188;-73
2022/04/30 10:14:31;;;;;;;3.35;2.90;;;;;;;20.03;66.34;100845.88;5052114;28;20195;-73
2022/04/30 10:17:12;;;;;;;2.88;2.38;;;;;;;20.26;62.28;100851.75;5051577;28;20268;-72
2022/04/30 10:19:39;;;;;;;2.72;2.53;;;;;;;20.64;60.19;100839.88;5052072;28;20210;-72
2022/04/30 10:22:11;;;;;;;3.15;2.85;;;;;;;20.51;58.58;100838.31;5052099;28;20257;-72
2022/04/30 10:24:42;;;;;;;3.97;3.60;;;;;;;20.79;58.67;100834.41;5017256;28;20203;-72
2022/04/30 10:27:09;;;;;;;3.50;3.20;;;;;;;20.55;59.09;100824.19;5051857;28;20206;-72
2022/04/30 10:29:36;;;;;;;2.90;2.70;;;;;;;20.16;59.96;100823.78;5051718;28;20757;-72
2022/04/30 10:32:05;;;;;;;2.58;2.35;;;;;;;19.64;59.67;100815.59;5051664;28;20203;-72
2022/04/30 10:34:33;;;;;;;2.10;2.00;;;;;;;19.37;59.53;100833.38;5016449;28;20648;-72
2022/04/30 10:37:02;;;;;;;2.20;2.00;;;;;;;19.43;60.41;100825.47;5051598;28;20207;-71
2022/04/30 10:39:29;;;;;;;2.63;2.28;;;;;;;19.40;60.26;100804.41;5051519;28;20235;-73
2022/04/30 10:41:57;;;;;;;2.17;2.08;;;;;;;19.89;59.13;100804.81;5051389;28;20594;-71
2022/04/30 10:44:31;;;;;;;2.20;2.10;;;;;;;19.98;58.65;100821.38;5016775;28;20199;-71
2022/04/30 10:47:12;;;;;;;2.45;2.17;;;;;;;19.17;62.27;100802.88;5051695;28;20264;-73
2022/04/30 10:49:39;;;;;;;4.00;1.73;;;;;;;19.22;64.03;100811.59;5051373;28;20628;-73
2022/04/30 10:52:07;;;;;;;2.45;2.35;;;;;;;19.51;63.16;100813.13;5051128;28;20679;-73
2022/04/30 10:54:35;;;;;;;2.17;2.00;;;;;;;19.39;65.59;100781.63;5051211;28;20235;-73
2022/04/30 10:57:03;;;;;;;2.03;1.92;;;;;;;18.70;67.05;100748.03;5050846;28;20206;-71
2022/04/30 10:59:30;;;;;;;3.63;2.40;;;;;;;18.87;67.91;100761.03;5051813;28;20208;-73
2022/04/30 11:01:57;;;;;;;2.20;2.10;;;;;;;19.50;63.57;100800.84;5051734;28;20220;-72
2022/04/30 11:04:25;;;;;;;1.92;1.83;;;;;;;19.16;66.23;100801.09;5051785;28;20214;-72
2022/04/30 11:06:54;;;;;;;2.17;2.00;;;;;;;20.14;62.99;100801.00;5051551;28;20199;-72
2022/04/30 11:09:22;;;;;;;4.88;1.83;;;;;;;20.48;61.19;100806.72;5050176;28;20890;-72
2022/04/30 11:11:50;;;;;;;2.03;1.92;;;;;;;19.99;61.71;100795.91;5031755;28;20242;-72
2022/04/30 11:14:19;;;;;;;1.70;1.60;;;;;;;19.65;63.01;100800.69;5001523;28;20275;-72
2022/04/30 11:16:49;;;;;;;2.58;2.20;;;;;;;19.80;61.40;100745.25;5041892;28;20672;-70
2022/04/30 11:19:17;;;;;;;2.45;1.95;;;;;;;19.30;64.47;100801.84;5050923;28;20192;-70
2022/04/30 11:21:50;;;;;;;2.10;1.92;;;;;;;19.27;66.25;100798.38;5051502;28;20329;-69
2022/04/30 11:24:24;;;;;;;1.98;1.88;;;;;;;19.59;65.02;100793.72;5051918;28;20230;-72
2022/04/30 11:26:55;;;;;;;2.40;1.92;;;;;;;19.50;65.57;100785.94;5030556;28;20290;-73
2022/04/30 11:29:22;;;;;;;1.73;1.63;;;;;;;19.75;60.84;100797.06;4995800;28;20228;-72
2022/04/30 11:31:51;;;;;;;1.45;1.38;;;;;;;19.71;58.83;100796.25;4996193;28;20287;-72
2022/04/30 11:34:19;;;;;;;1.67;1.58;;;;;;;20.16;57.01;100776.38;5039088;28;20751;-72
2022/04/30 11:36:49;;;;;;;1.90;1.80;;;;;;;20.64;56.02;100797.72;5050365;28;20203;-76
2022/04/30 11:39:17;;;;;;;1.70;1.60;;;;;;;20.60;57.67;100785.47;5051827;28;20195;-76
2022/04/30 11:41:46;;;;;;;3.97;1.75;;;;;;;20.54;58.71;100796.97;5021573;28;20203;-76
2022/04/30 11:44:14;;;;;;;2.28;2.17;;;;;;;20.32;58.33;100734.06;5053505;28;20199;-79
2022/04/30 11:46:41;;;;;;;2.03;1.83;;;;;;;20.94;58.20;100789.31;5063287;28;20203;-73
2022/04/30 11:49:10;;;;;;;2.20;2.10;;;;;;;21.01;56.94;100769.88;5050860;28;20230;-73
2022/04/30 11:51:37;;;;;;;2.97;2.28;;;;;;;20.90;53.84;100719.09;5050810;28;20200;-73